Time;durP1;ratioP1;P1;durP2;ratioP2;P2;SDS_P1;SDS_P2;PMS_P1;PMS_P2;Temp;Humidity;BMP_temperature;BMP_pressure;BME280_temperature;BME280_humidity;BME280_pressure;Samples;Min_cycle;Max_cycle;Signal;HPM_P1;HPM_P2
2021/03/31 00:00:35;;;;;;;28.33;17.02;;;15.20;78.20;;;;;;5010702;28;20052;-70
2021/03/31 00:03:04;;;;;;;27.13;16.88;;;15.20;78.60;;;;;;5020050;28;20030;-70
2021/03/31 00:05:30;;;;;;;25.60;16.25;;;15.10;78.80;;;;;;5013937;28;20088;-70
2021/03/31 00:07:56;;;;;;;30.55;16.02;;;15.10;78.90;;;;;;5012530;28;20038;-70
2021/03/31 00:10:26;;;;;;;27.50;14.50;;;15.00;79.10;;;;;;5010317;28;20025;-71
2021/03/31 00:12:51;;;;;;;24.35;15.43;;;15.00;79.10;;;;;;5010909;28;20033;-71
2021/03/31 00:15:17;;;;;;;29.25;16.60;;;15.00;79.30;;;;;;5015286;28;20474;-70
2021/03/31 00:17:43;;;;;;;28.63;16.60;;;15.00;79.60;;;;;;5031152;28;20060;-70
2021/03/31 00:20:15;;;;;;;27.80;17.50;;;14.90;80.00;;;;;;5014528;28;20109;-70
2021/03/31 00:22:41;;;;;;;21.48;14.55;;;15.00;80.20;;;;;;5029096;28;20028;-70
2021/03/31 00:25:08;;;;;;;24.77;15.07;;;14.90;80.20;;;;;;5013514;28;20067;-70
2021/03/31 00:27:33;;;;;;;24.95;15.85;;;14.90;80.20;;;;;;5030899;28;20034;-70
2021/03/31 00:29:59;;;;;;;21.83;14.07;;;14.90;80.30;;;;;;5015078;28;20440;-70
2021/03/31 00:32:24;;;;;;;27.00;16.55;;;14.80;80.50;;;;;;5031120;28;20043;-70
2021/03/31 00:34:50;;;;;;;24.05;14.90;;;14.80;80.70;;;;;;5012269;28;20026;-70
2021/03/31 00:37:15;;;;;;;27.92;15.68;;;14.80;80.80;;;;;;5023203;28;20356;-70
2021/03/31 00:39:41;;;;;;;24.35;14.80;;;14.80;80.90;;;;;;5010209;28;20144;-70
2021/03/31 00:42:07;;;;;;;24.98;14.73;;;14.70;81.00;;;;;;5031059;28;20037;-70
2021/03/31 00:44:32;;;;;;;24.52;14.95;;;14.70;80.90;;;;;;5014113;28;20072;-71
2021/03/31 00:46:57;;;;;;;22.67;15.88;;;14.70;81.30;;;;;;5032326;28;20107;-70
2021/03/31 00:49:23;;;;;;;26.00;14.75;;;14.60;81.50;;;;;;5017395;28;20556;-69
2021/03/31 00:51:49;;;;;;;28.48;15.13;;;14.60;81.50;;;;;;5023410;28;20030;-70
2021/03/31 00:54:15;;;;;;;20.63;13.23;;;14.60;81.80;;;;;;5023745;28;20024;-70
2021/03/31 00:56:40;;;;;;;22.92;13.70;;;14.50;82.00;;;;;;5031366;28;20030;-70
2021/03/31 00:59:06;;;;;;;24.17;14.63;;;14.50;81.90;;;;;;5021145;28;20147;-70
2021/03/31 01:01:31;;;;;;;24.50;14.50;;;14.50;82.20;;;;;;5028909;28;20044;-70
2021/03/31 01:03:57;;;;;;;21.88;14.57;;;14.50;82.50;;;;;;5018839;28;20026;-70
2021/03/31 01:06:22;;;;;;;28.63;15.43;;;14.50;82.80;;;;;;5027744;28;20124;-70
2021/03/31 01:08:48;;;;;;;26.02;15.35;;;14.50;82.90;;;;;;5017998;28;20112;-70
2021/03/31 01:11:25;;;;;;;25.80;15.80;;;14.40;82.70;;;;;;5012903;28;20026;-70
2021/03/31 01:14:08;;;;;;;26.08;14.65;;;14.50;82.90;;;;;;5017934;28;20047;-70
2021/03/31 01:16:45;;;;;;;23.30;13.93;;;14.40;82.80;;;;;;5033910;28;20036;-69
2021/03/31 01:19:29;;;;;;;24.23;14.82;;;14.40;83.30;;;;;;5030860;28;20052;-69
2021/03/31 01:22:15;;;;;;;25.55;14.90;;;14.30;83.30;;;;;;5032331;28;20025;-69
2021/03/31 01:25:03;;;;;;;18.33;12.77;;;14.40;83.20;;;;;;5018513;28;20025;-69
2021/03/31 01:28:04;;;;;;;22.45;13.15;;;14.30;83.00;;;;;;5011358;28;20121;-70
2021/03/31 01:30:59;;;;;;;24.52;13.45;;;14.30;83.20;;;;;;4994311;28;20026;-69
2021/03/31 01:33:42;;;;;;;27.02;14.77;;;14.20;83.40;;;;;;5010449;28;20069;-69
2021/03/31 01:36:15;;;;;;;23.80;15.30;;;14.20;83.70;;;;;;5033516;28;20026;-69
2021/03/31 01:38:42;;;;;;;25.67;15.38;;;14.20;83.70;;;;;;5017304;28;20061;-69
2021/03/31 01:41:10;;;;;;;22.05;13.68;;;14.10;84.10;;;;;;5026075;28;20068;-70
2021/03/31 01:43:35;;;;;;;22.48;13.95;;;14.10;84.50;;;;;;5015519;28;20055;-69
2021/03/31 01:46:02;;;;;;;24.73;15.77;;;14.10;84.40;;;;;;5020497;28;20050;-69
2021/03/31 01:48:31;;;;;;;27.13;15.02;;;14.10;84.60;;;;;;5013661;28;20031;-69
2021/03/31 01:51:06;;;;;;;24.60;13.73;;;14.10;84.30;;;;;;5023264;28;20368;-69
2021/03/31 01:53:33;;;;;;;24.80;14.38;;;14.00;84.60;;;;;;5013441;28;20067;-69
2021/03/31 01:56:00;;;;;;;22.98;13.80;;;14.00;84.60;;;;;;5002247;28;20025;-69
2021/03/31 01:58:26;;;;;;;21.67;14.27;;;14.00;84.60;;;;;;5029741;28;20113;-69
2021/03/31 02:00:53;;;;;;;25.88;14.65;;;13.90;84.70;;;;;;5023857;28;20033;-69
2021/03/31 02:03:21;;;;;;;22.40;14.88;;;13.90;84.90;;;;;;5011865;28;20072;-69
2021/03/31 02:05:47;;;;;;;21.58;14.98;;;13.90;85.10;;;;;;5012912;28;20104;-69
2021/03/31 02:08:14;;;;;;;21.60;13.93;;;13.90;85.20;;;;;;5012251;28;20056;-69
2021/03/31 02:10:42;;;;;;;22.00;13.35;;;13.90;85.10;;;;;;5025370;28;20025;-68
2021/03/31 02:13:10;;;;;;;23.70;14.40;;;13.80;85.10;;;;;;5005799;28;20053;-69
2021/03/31 02:15:36;;;;;;;28.20;14.88;;;13.80;85.40;;;;;;5026365;28;20033;-69
2021/03/31 02:18:07;;;;;;;29.85;14.57;;;13.80;85.60;;;;;;5011969;28;20022;-69
2021/03/31 02:20:33;;;;;;;26.50;14.32;;;13.80;85.70;;;;;;5022216;28;20108;-69
2021/03/31 02:23:00;;;;;;;23.58;14.18;;;13.70;85.80;;;;;;5012640;28;20088;-69
2021/03/31 02:25:25;;;;;;;25.33;14.90;;;13.70;86.00;;;;;;5021433;28;20036;-69
2021/03/31 02:27:51;;;;;;;26.48;15.48;;;13.60;86.50;;;;;;5012034;28;20033;-69
2021/03/31 02:30:21;;;;;;;27.20;15.23;;;13.60;86.80;;;;;;5023257;28;20540;-69
2021/03/31 02:32:49;;;;;;;25.77;15.93;;;13.60;87.20;;;;;;5012403;28;20034;-71
2021/03/31 02:35:17;;;;;;;21.98;15.07;;;13.60;87.40;;;;;;5018968;28;20033;-70
2021/03/31 02:37:44;;;;;;;25.65;16.20;;;13.50;87.50;;;;;;5012788;28;20034;-70
2021/03/31 02:40:10;;;;;;;25.52;16.15;;;13.40;87.80;;;;;;5010220;28;20037;-70
2021/03/31 02:42:36;;;;;;;28.60;16.52;;;13.50;87.90;;;;;;5012442;28;20033;-70
2021/03/31 02:45:04;;;;;;;29.88;17.17;;;13.40;88.00;;;;;;5016963;28;20031;-70
2021/03/31 02:47:30;;;;;;;28.55;16.70;;;13.40;88.10;;;;;;5012665;28;20045;-70
2021/03/31 02:49:59;;;;;;;29.80;17.90;;;13.40;88.20;;;;;;5017293;28;20466;-70
2021/03/31 02:52:27;;;;;;;30.98;17.05;;;13.30;88.40;;;;;;5012126;28;20053;-70
2021/03/31 02:54:53;;;;;;;30.73;18.42;;;13.30;88.70;;;;;;5022325;28;20056;-70
2021/03/31 02:57:21;;;;;;;29.77;16.92;;;13.20;88.80;;;;;;4994423;28;20030;-70
2021/03/31 02:59:48;;;;;;;27.80;16.10;;;13.20;89.00;;;;;;5016410;28;20050;-70
2021/03/31 03:02:16;;;;;;;27.85;15.95;;;13.20;89.10;;;;;;5011738;28;20065;-70
2021/03/31 03:04:48;;;;;;;26.30;15.32;;;13.10;89.20;;;;;;5017632;28;20028;-70
2021/03/31 03:07:14;;;;;;;26.75;17.58;;;13.10;89.40;;;;;;5011420;28;20084;-70
2021/03/31 03:09:41;;;;;;;30.13;16.52;;;13.10;89.40;;;;;;5012713;28;20105;-70
2021/03/31 03:12:08;;;;;;;29.48;16.52;;;13.00;89.60;;;;;;5011736;28;20045;-70
2021/03/31 03:14:34;;;;;;;26.27;17.17;;;13.00;89.90;;;;;;5012843;28;20041;-69
2021/03/31 03:16:59;;;;;;;29.10;15.77;;;13.00;90.00;;;;;;5012130;28;20093;-70
2021/03/31 03:19:25;;;;;;;26.92;15.68;;;12.90;90.00;;;;;;5013520;28;20037;-70
2021/03/31 03:21:51;;;;;;;28.40;16.35;;;12.90;90.10;;;;;;5012063;28;20022;-69
2021/03/31 03:24:17;;;;;;;25.95;16.17;;;12.90;90.10;;;;;;5014634;28;20030;-70
2021/03/31 03:26:43;;;;;;;27.92;16.42;;;12.80;90.20;;;;;;5011251;28;20037;-70
2021/03/31 03:29:10;;;;;;;24.13;15.57;;;12.80;90.30;;;;;;5009517;28;20061;-70
2021/03/31 03:31:37;;;;;;;25.58;15.95;;;12.80;90.30;;;;;;5010823;28;20036;-70
2021/03/31 03:34:07;;;;;;;27.10;16.73;;;12.80;90.50;;;;;;5014703;28;20033;-70
2021/03/31 03:36:34;;;;;;;27.90;15.68;;;12.80;90.50;;;;;;5031747;28;20053;-70
2021/03/31 03:38:59;;;;;;;25.33;15.43;;;12.80;90.50;;;;;;5025215;28;20030;-70
2021/03/31 03:41:25;;;;;;;27.17;15.73;;;12.70;90.50;;;;;;5031353;28;20532;-70
2021/03/31 03:43:55;;;;;;;26.92;15.98;;;12.70;90.50;;;;;;5025580;28;20022;-70
2021/03/31 03:46:21;;;;;;;24.48;16.15;;;12.70;90.60;;;;;;5031189;28;20033;-70
2021/03/31 03:48:47;;;;;;;26.10;16.23;;;12.60;90.60;;;;;;5008168;28;20041;-69
2021/03/31 03:51:13;;;;;;;25.00;15.38;;;12.60;90.60;;;;;;5031278;28;20028;-69
2021/03/31 03:53:39;;;;;;;27.58;15.85;;;12.60;90.70;;;;;;5013550;28;20382;-70
2021/03/31 03:56:13;;;;;;;25.92;16.55;;;12.60;90.80;;;;;;5030686;28;20026;-70
2021/03/31 03:58:39;;;;;;;26.17;16.05;;;12.60;90.80;;;;;;5018469;28;20656;-69
2021/03/31 04:01:05;;;;;;;30.40;16.92;;;12.60;90.80;;;;;;5027408;28;20112;-70
2021/03/31 04:03:31;;;;;;;26.48;17.17;;;12.50;90.80;;;;;;5016335;28;20133;-70
2021/03/31 04:05:57;;;;;;;31.08;17.67;;;12.50;90.90;;;;;;5029559;28;20025;-70
2021/03/31 04:08:22;;;;;;;24.70;16.35;;;12.50;90.90;;;;;;5010000;28;20091;-70
2021/03/31 04:10:51;;;;;;;27.70;16.25;;;12.40;90.90;;;;;;5027106;28;20083;-70
2021/03/31 04:13:18;;;;;;;24.48;15.57;;;12.40;91.00;;;;;;5026441;28;20041;-70
2021/03/31 04:15:46;;;;;;;24.33;16.20;;;12.40;91.10;;;;;;5026925;28;20174;-70
2021/03/31 04:18:13;;;;;;;22.48;15.32;;;12.40;91.10;;;;;;5024941;28;20075;-70
2021/03/31 04:20:39;;;;;;;26.98;15.02;;;12.40;91.00;;;;;;5029521;28;20033;-70
2021/03/31 04:23:06;;;;;;;34.60;16.30;;;12.30;91.10;;;;;;5026108;28;20025;-71
2021/03/31 04:25:31;;;;;;;24.02;15.93;;;12.30;91.20;;;;;;5029246;28;20033;-70
2021/03/31 04:28:02;;;;;;;26.55;16.70;;;12.30;91.20;;;;;;5016319;28;20041;-70
2021/03/31 04:30:28;;;;;;;28.13;16.88;;;12.30;91.50;;;;;;5028483;28;20033;-70
2021/03/31 04:32:54;;;;;;;25.77;16.58;;;12.30;91.20;;;;;;5029223;28;20041;-70
2021/03/31 04:35:21;;;;;;;27.95;16.65;;;12.20;91.30;;;;;;5026593;28;20033;-70
2021/03/31 04:37:47;;;;;;;25.77;17.08;;;12.20;91.30;;;;;;5027484;28;20100;-70
2021/03/31 04:40:14;;;;;;;26.42;16.13;;;12.20;91.40;;;;;;5026333;28;20029;-70
2021/03/31 04:42:40;;;;;;;26.02;16.92;;;12.20;91.40;;;;;;5020458;28;20541;-70
2021/03/31 04:45:07;;;;;;;27.33;16.40;;;12.20;91.40;;;;;;5011168;28;20026;-70
2021/03/31 04:47:34;;;;;;;27.75;15.52;;;12.20;91.40;;;;;;5005365;28;20038;-70
2021/03/31 04:49:59;;;;;;;25.80;15.70;;;12.20;91.50;;;;;;5024209;28;20524;-70
2021/03/31 04:52:26;;;;;;;24.60;15.95;;;12.10;91.50;;;;;;5023799;28;20113;-70
2021/03/31 04:54:51;;;;;;;24.17;15.98;;;12.10;91.50;;;;;;5021199;28;20029;-70
2021/03/31 04:57:17;;;;;;;25.60;15.60;;;12.10;91.60;;;;;;5026105;28;20033;-70
2021/03/31 04:59:42;;;;;;;27.95;15.68;;;12.00;91.60;;;;;;5020976;28;20049;-70
2021/03/31 05:02:08;;;;;;;30.98;16.08;;;12.00;91.80;;;;;;5027600;28;20041;-70
2021/03/31 05:04:33;;;;;;;26.20;15.85;;;12.00;91.80;;;;;;5010099;28;20026;-70
2021/03/31 05:06:59;;;;;;;31.67;16.65;;;12.00;91.80;;;;;;5027556;28;20045;-70
2021/03/31 05:09:24;;;;;;;26.10;15.85;;;12.00;91.80;;;;;;5011908;28;20058;-70
2021/03/31 05:11:50;;;;;;;24.45;15.55;;;12.00;91.80;;;;;;5014055;28;20032;-70
2021/03/31 05:14:15;;;;;;;28.52;16.15;;;12.00;91.80;;;;;;5017313;28;20480;-70
2021/03/31 05:16:41;;;;;;;26.08;15.52;;;11.90;91.80;;;;;;5030106;28;20029;-70
2021/03/31 05:19:06;;;;;;;25.80;16.48;;;11.90;91.80;;;;;;5015940;28;20028;-70
2021/03/31 05:21:32;;;;;;;23.38;15.18;;;11.90;92.00;;;;;;5031595;28;20829;-69
2021/03/31 05:23:57;;;;;;;25.73;15.13;;;11.90;91.70;;;;;;5024981;28;20034;-69
2021/03/31 05:26:23;;;;;;;26.63;15.93;;;11.90;91.80;;;;;;5017546;28;20463;-69
2021/03/31 05:28:51;;;;;;;25.23;16.17;;;11.90;91.80;;;;;;5012548;28;20030;-70
2021/03/31 05:31:16;;;;;;;24.02;16.27;;;11.90;91.70;;;;;;5013013;28;20022;-72
2021/03/31 05:33:42;;;;;;;27.85;16.90;;;11.90;91.70;;;;;;5018909;28;20032;-70
2021/03/31 05:36:09;;;;;;;38.13;17.35;;;11.90;91.80;;;;;;5008176;28;20032;-70
2021/03/31 05:38:34;;;;;;;30.48;17.00;;;11.90;91.70;;;;;;5013013;28;20067;-69
2021/03/31 05:41:00;;;;;;;25.35;16.80;;;11.90;91.70;;;;;;5031500;28;20477;-69
2021/03/31 05:43:26;;;;;;;29.33;16.55;;;11.90;91.60;;;;;;5030559;28;20024;-70
2021/03/31 05:45:53;;;;;;;27.48;16.25;;;11.90;91.60;;;;;;5026586;28;20034;-70
2021/03/31 05:48:19;;;;;;;34.50;16.17;;;11.90;91.80;;;;;;4995544;28;20437;-71
2021/03/31 05:50:44;;;;;;;29.90;16.20;;;11.90;91.70;;;;;;5025589;28;20028;-70
2021/03/31 05:53:10;;;;;;;29.10;15.70;;;12.00;91.60;;;;;;5024327;28;20087;-70
2021/03/31 05:55:35;;;;;;;27.90;16.00;;;12.00;91.70;;;;;;4997180;28;20538;-70
2021/03/31 05:58:02;;;;;;;25.80;15.40;;;12.00;91.70;;;;;;5013352;28;20033;-70
2021/03/31 06:00:28;;;;;;;29.80;16.65;;;12.00;91.60;;;;;;5011570;28;20243;-70
2021/03/31 06:02:55;;;;;;;28.38;15.85;;;12.00;91.70;;;;;;5006961;28;20030;-69
2021/03/31 06:05:20;;;;;;;26.55;16.02;;;12.00;91.60;;;;;;5007141;28;20033;-69
2021/03/31 06:07:49;;;;;;;30.05;15.05;;;12.10;91.60;;;;;;5013212;28;20033;-69
2021/03/31 06:10:27;;;;;;;40.88;16.25;;;12.10;91.60;;;;;;5024709;28;20029;-69
2021/03/31 06:12:57;;;;;;;34.85;17.02;;;12.10;91.60;;;;;;5027968;28;20379;-69
2021/03/31 06:15:28;;;;;;;28.88;14.50;;;12.20;91.60;;;;;;5026312;28;20025;-70
2021/03/31 06:17:59;;;;;;;27.48;16.77;;;12.20;91.60;;;;;;4997773;28;20648;-71
2021/03/31 06:20:34;;;;;;;30.55;16.42;;;12.20;91.50;;;;;;5022273;28;20418;-70
2021/03/31 06:23:16;;;;;;;33.20;16.75;;;12.30;91.40;;;;;;5016800;28;20388;-69
2021/03/31 06:26:15;;;;;;;28.73;15.52;;;12.30;91.40;;;;;;5018553;28;20417;-69
2021/03/31 06:28:37;;;;;;;29.10;15.98;;;12.40;91.30;;;;;;5009848;28;20458;-70
2021/03/31 06:31:11;;;;;;;30.30;16.52;;;12.50;91.30;;;;;;5018130;28;20084;-69
2021/03/31 06:33:40;;;;;;;28.45;16.73;;;12.50;91.30;;;;;;5013677;28;20417;-69
2021/03/31 06:36:07;;;;;;;24.50;15.90;;;12.50;91.10;;;;;;5011319;28;20034;-69
2021/03/31 06:38:34;;;;;;;28.98;15.32;;;12.60;91.10;;;;;;5011468;28;20105;-68
2021/03/31 06:41:26;;;;;;;27.15;16.05;;;12.70;91.20;;;;;;5024677;28;20037;-68
2021/03/31 06:44:18;;;;;;;28.73;15.48;;;12.80;91.00;;;;;;5011812;28;20498;-70
2021/03/31 06:46:59;;;;;;;25.17;14.20;;;12.90;91.10;;;;;;5012725;28;20052;-70
2021/03/31 06:49:25;;;;;;;28.52;15.10;;;13.00;91.00;;;;;;5011309;28;20556;-70
2021/03/31 06:51:51;;;;;;;28.70;15.70;;;13.10;90.90;;;;;;5011384;28;20026;-70
2021/03/31 06:54:18;;;;;;;32.80;14.95;;;13.10;90.80;;;;;;5010044;28;20404;-70
2021/03/31 06:56:52;;;;;;;28.30;14.18;;;13.20;90.80;;;;;;5012220;28;20553;-70
2021/03/31 06:59:29;;;;;;;29.00;15.48;;;13.30;90.70;;;;;;5010827;28;20042;-68
2021/03/31 07:01:56;;;;;;;28.92;14.82;;;13.40;90.60;;;;;;5007013;28;20097;-68
2021/03/31 07:04:23;;;;;;;26.52;15.02;;;13.40;90.40;;;;;;5007725;28;20505;-70
2021/03/31 07:06:59;;;;;;;24.80;14.23;;;13.50;90.30;;;;;;5008651;28;20140;-69
2021/03/31 07:09:24;;;;;;;27.15;14.80;;;13.60;90.20;;;;;;5013113;28;20025;-68
2021/03/31 07:11:50;;;;;;;27.35;15.30;;;13.70;90.20;;;;;;4992217;28;20026;-72
2021/03/31 07:14:16;;;;;;;21.55;13.82;;;13.80;90.10;;;;;;5000802;28;20014;-70
2021/03/31 07:16:43;;;;;;;28.15;14.60;;;13.90;90.10;;;;;;5011849;28;20109;-69
2021/03/31 07:19:09;;;;;;;26.65;15.10;;;13.90;89.90;;;;;;5013784;28;20038;-68
2021/03/31 07:21:36;;;;;;;29.98;14.38;;;14.00;89.70;;;;;;5011482;28;20036;-68
2021/03/31 07:24:02;;;;;;;23.48;13.75;;;14.10;89.50;;;;;;5012529;28;20071;-69
2021/03/31 07:26:28;;;;;;;26.52;13.95;;;14.20;89.20;;;;;;5013025;28;20032;-68
2021/03/31 07:28:56;;;;;;;26.95;13.85;;;14.30;89.10;;;;;;5012007;28;20037;-68
2021/03/31 07:31:27;;;;;;;25.58;14.88;;;14.40;88.80;;;;;;4993565;28;20038;-68
2021/03/31 07:34:26;;;;;;;26.15;13.80;;;14.50;88.90;;;;;;4993456;28;20072;-70
2021/03/31 07:36:54;;;;;;;23.58;12.75;;;14.60;88.10;;;;;;5009640;28;20076;-71
2021/03/31 07:39:24;;;;;;;27.50;14.70;;;14.70;87.80;;;;;;5009932;28;20030;-69
2021/03/31 07:41:51;;;;;;;24.02;14.77;;;14.80;87.40;;;;;;5011138;28;20030;-70
2021/03/31 07:44:21;;;;;;;22.60;13.70;;;14.90;87.20;;;;;;5015345;28;20049;-74
2021/03/31 07:46:48;;;;;;;28.55;13.82;;;14.90;86.70;;;;;;5009490;28;20022;-68
2021/03/31 07:49:15;;;;;;;22.17;13.13;;;15.00;86.40;;;;;;5009708;28;20040;-69
2021/03/31 07:51:57;;;;;;;22.45;13.07;;;15.10;86.10;;;;;;5011220;28;20022;-70
2021/03/31 07:54:23;;;;;;;22.23;12.98;;;15.20;86.00;;;;;;5010605;28;20101;-69
2021/03/31 07:56:48;;;;;;;28.48;13.82;;;15.30;85.30;;;;;;5001858;28;20117;-70
2021/03/31 07:59:18;;;;;;;25.88;14.07;;;15.40;85.10;;;;;;5014657;28;20065;-67
2021/03/31 08:01:48;;;;;;;23.90;13.02;;;15.40;84.70;;;;;;5014476;28;20041;-68
2021/03/31 08:04:15;;;;;;;21.75;12.93;;;15.50;84.30;;;;;;5009271;28;20493;-69
2021/03/31 08:06:42;;;;;;;22.88;13.43;;;15.60;84.30;;;;;;5014900;28;20030;-66
2021/03/31 08:09:19;;;;;;;21.75;13.18;;;15.70;83.70;;;;;;5012276;28;20092;-69
2021/03/31 08:11:51;;;;;;;22.02;12.68;;;15.80;83.40;;;;;;5016720;28;20029;-69
2021/03/31 08:14:38;;;;;;;23.92;12.73;;;15.90;82.90;;;;;;5013508;28;20026;-69
2021/03/31 08:17:10;;;;;;;20.08;11.85;;;16.00;82.90;;;;;;5014578;28;20060;-68
2021/03/31 08:19:41;;;;;;;18.13;11.30;;;16.10;82.70;;;;;;5012987;28;20025;-68
2021/03/31 08:22:19;;;;;;;21.58;10.95;;;16.10;82.50;;;;;;5014181;28;20034;-68
2021/03/31 08:24:48;;;;;;;23.50;11.27;;;16.20;82.00;;;;;;4996722;28;20026;-68
2021/03/31 08:27:14;;;;;;;20.17;11.85;;;16.30;81.60;;;;;;4996313;28;20042;-69
2021/03/31 08:29:42;;;;;;;24.00;10.65;;;16.40;81.70;;;;;;5021747;28;20060;-69
2021/03/31 08:32:09;;;;;;;23.48;11.77;;;16.50;81.30;;;;;;5019214;28;20034;-71
2021/03/31 08:34:36;;;;;;;20.33;11.52;;;16.50;80.70;;;;;;5015830;28;20033;-69
2021/03/31 08:37:06;;;;;;;22.30;11.13;;;16.60;80.20;;;;;;5002430;28;20022;-69
2021/03/31 08:39:32;;;;;;;21.02;11.75;;;16.70;80.00;;;;;;5010011;28;20046;-68
2021/03/31 08:41:59;;;;;;;19.85;11.68;;;16.80;79.90;;;;;;5012666;28;20030;-69
2021/03/31 08:44:30;;;;;;;19.55;11.55;;;16.90;79.10;;;;;;5019501;28;20528;-68
2021/03/31 08:47:09;;;;;;;23.33;11.13;;;16.90;78.70;;;;;;5018398;28;20026;-68
2021/03/31 08:49:34;;;;;;;18.88;11.15;;;17.00;78.50;;;;;;5009171;28;20030;-69
2021/03/31 08:52:06;;;;;;;25.08;11.68;;;17.10;77.80;;;;;;5014333;28;20355;-69
2021/03/31 08:54:50;;;;;;;20.38;10.75;;;17.20;77.10;;;;;;5019342;28;20515;-69
2021/03/31 08:57:27;;;;;;;20.05;11.00;;;17.30;76.90;;;;;;5019275;28;20046;-69
2021/03/31 08:59:56;;;;;;;23.40;11.95;;;17.40;76.20;;;;;;5022595;28;20157;-69
2021/03/31 09:02:24;;;;;;;20.45;11.05;;;17.50;75.90;;;;;;5019641;28;20045;-68
2021/03/31 09:04:50;;;;;;;19.45;11.05;;;17.60;75.10;;;;;;5022038;28;20121;-69
2021/03/31 09:07:16;;;;;;;21.17;10.60;;;17.70;74.00;;;;;;5019908;28;20063;-69
2021/03/31 09:09:44;;;;;;;21.60;11.32;;;17.80;73.50;;;;;;5020810;28;20112;-68
2021/03/31 09:12:12;;;;;;;20.27;11.93;;;17.90;73.00;;;;;;5018821;28;20087;-67
2021/03/31 09:14:41;;;;;;;23.33;10.70;;;17.90;71.80;;;;;;5014166;28;20113;-68
2021/03/31 09:17:10;;;;;;;18.20;11.40;;;18.00;71.50;;;;;;5004246;28;20030;-67
2021/03/31 09:19:38;;;;;;;22.05;11.32;;;18.10;70.00;;;;;;5012094;28;20026;-68
2021/03/31 09:22:12;;;;;;;22.58;11.88;;;18.20;69.30;;;;;;5012765;28;20482;-68
2021/03/31 09:24:40;;;;;;;23.45;12.00;;;18.30;68.70;;;;;;4996448;28;20121;-68
2021/03/31 09:27:13;;;;;;;24.98;11.60;;;18.40;68.10;;;;;;4994892;28;20076;-68
2021/03/31 09:29:44;;;;;;;23.80;13.77;;;18.50;67.70;;;;;;5019546;28;20033;-68
2021/03/31 09:32:17;;;;;;;21.90;13.07;;;18.60;66.40;;;;;;5033598;28;20033;-68
2021/03/31 09:34:43;;;;;;;23.65;13.40;;;18.60;64.70;;;;;;5022380;28;20062;-67
2021/03/31 09:37:11;;;;;;;23.05;14.43;;;18.80;63.60;;;;;;5013779;28;20064;-67
2021/03/31 09:39:50;;;;;;;27.92;14.45;;;18.80;62.30;;;;;;5012658;28;20022;-68
2021/03/31 09:42:21;;;;;;;26.63;14.55;;;18.90;61.50;;;;;;5012781;28;20108;-68
2021/03/31 09:44:49;;;;;;;26.35;14.48;;;19.00;60.60;;;;;;5014425;28;20037;-68
2021/03/31 09:47:18;;;;;;;27.25;13.90;;;19.10;59.70;;;;;;5013447;28;20037;-68
2021/03/31 09:49:44;;;;;;;26.08;13.77;;;19.10;59.40;;;;;;5020431;28;20029;-67
2021/03/31 09:52:14;;;;;;;22.55;12.93;;;19.20;58.00;;;;;;5033118;28;20037;-68
2021/03/31 09:54:44;;;;;;;23.52;12.98;;;19.30;57.10;;;;;;5030518;28;20029;-68
2021/03/31 09:57:10;;;;;;;22.52;13.10;;;19.40;56.60;;;;;;5033242;28;20071;-68
2021/03/31 09:59:38;;;;;;;23.05;12.65;;;19.50;55.80;;;;;;5029795;28;20046;-68
2021/03/31 10:02:04;;;;;;;25.60;13.93;;;19.60;54.80;;;;;;5019220;28;20053;-68
2021/03/31 10:04:34;;;;;;;22.17;12.45;;;19.70;53.70;;;;;;5018375;28;20061;-68
2021/03/31 10:07:13;;;;;;;23.25;13.45;;;19.80;53.70;;;;;;5015127;28;20104;-68
2021/03/31 10:09:43;;;;;;;29.88;14.23;;;19.90;52.70;;;;;;5029926;28;20045;-68
2021/03/31 10:12:11;;;;;;;24.17;12.85;;;20.00;51.40;;;;;;5022154;28;20034;-69
2021/03/31 10:14:47;;;;;;;23.50;13.15;;;20.00;50.70;;;;;;5011663;28;20034;-68
2021/03/31 10:17:13;;;;;;;22.17;11.75;;;20.10;51.10;;;;;;5012238;28;20057;-68
2021/03/31 10:19:39;;;;;;;22.10;11.73;;;20.20;50.70;;;;;;5019170;28;20033;-67
2021/03/31 10:22:05;;;;;;;23.50;12.35;;;20.20;51.00;;;;;;5032602;28;20029;-69
2021/03/31 10:24:36;;;;;;;22.30;12.13;;;20.40;50.50;;;;;;5029439;28;20097;-68
2021/03/31 10:27:02;;;;;;;24.17;13.10;;;20.40;50.00;;;;;;5032409;28;20033;-68
2021/03/31 10:29:28;;;;;;;21.60;11.27;;;20.50;49.60;;;;;;5029986;28;20036;-67
2021/03/31 10:31:54;;;;;;;22.15;12.50;;;20.60;49.60;;;;;;5032351;28;20026;-68
2021/03/31 10:34:20;;;;;;;26.20;15.45;;;20.70;49.20;;;;;;5029196;28;20076;-67
2021/03/31 10:47:20;;;;;;;18.67;11.63;;;21.00;47.60;;;;;;5032136;28;20050;-68
2021/03/31 10:49:50;;;;;;;21.65;12.25;;;21.10;47.60;;;;;;5020863;28;20037;-67
2021/03/31 10:52:20;;;;;;;17.77;11.35;;;21.10;47.30;;;;;;5012325;28;20037;-67
2021/03/31 10:54:45;;;;;;;19.23;11.00;;;21.20;47.30;;;;;;5002747;28;20042;-68
2021/03/31 10:57:12;;;;;;;20.70;11.50;;;21.30;46.80;;;;;;5032276;28;20096;-68
2021/03/31 10:59:39;;;;;;;15.82;10.32;;;21.40;46.40;;;;;;5029090;28;20053;-68
2021/03/31 11:02:05;;;;;;;19.77;10.57;;;21.40;45.90;;;;;;5016649;28;20033;-67
2021/03/31 11:04:31;;;;;;;19.40;10.25;;;21.50;46.00;;;;;;5017494;28;20109;-68
2021/03/31 11:06:57;;;;;;;19.20;11.75;;;21.50;45.60;;;;;;5013987;28;20112;-67
2021/03/31 11:09:22;;;;;;;18.77;11.23;;;21.60;45.00;;;;;;5027239;28;20088;-67
2021/03/31 11:11:48;;;;;;;20.05;10.45;;;21.60;44.00;;;;;;5032077;28;20498;-67
2021/03/31 11:14:16;;;;;;;17.52;10.40;;;21.60;44.20;;;;;;5024691;28;20022;-67
2021/03/31 11:16:47;;;;;;;22.95;11.18;;;21.70;44.40;;;;;;4995383;28;20049;-67
2021/03/31 11:19:39;;;;;;;17.25;10.23;;;21.70;44.20;;;;;;5001497;28;20478;-68
2021/03/31 11:27:33;;;;;;;21.05;9.95;;;21.90;43.50;;;;;;5010788;28;20041;-68
2021/03/31 11:30:03;;;;;;;16.65;10.02;;;21.90;43.50;;;;;;5020761;28;20501;-68
2021/03/31 11:32:28;;;;;;;19.67;10.60;;;22.00;43.10;;;;;;5031438;28;20083;-68
2021/03/31 11:34:54;;;;;;;17.60;10.13;;;22.00;43.10;;;;;;5025647;28;20475;-68
2021/03/31 11:37:19;;;;;;;18.27;10.70;;;22.10;42.40;;;;;;5007805;28;20030;-66
2021/03/31 11:39:45;;;;;;;22.58;10.85;;;22.10;42.40;;;;;;5018865;28;20034;-67
2021/03/31 11:42:10;;;;;;;19.50;10.00;;;22.20;42.50;;;;;;5013115;28;20025;-67
2021/03/31 11:44:36;;;;;;;17.90;10.80;;;22.20;42.30;;;;;;5019555;28;20021;-67
2021/03/31 11:47:02;;;;;;;17.25;10.90;;;22.30;42.00;;;;;;5030982;28;20021;-67
2021/03/31 11:49:27;;;;;;;17.38;9.70;;;22.30;41.60;;;;;;5015242;28;20427;-67
2021/03/31 11:51:53;;;;;;;17.73;10.52;;;22.40;42.00;;;;;;4991922;28;20415;-67
2021/03/31 11:54:18;;;;;;;17.38;10.90;;;22.40;41.90;;;;;;4999143;28;20029;-67
2021/03/31 11:56:44;;;;;;;17.50;11.13;;;22.40;41.30;;;;;;5011852;28;20028;-67
2021/03/31 11:59:09;;;;;;;15.73;9.38;;;22.40;41.60;;;;;;5013746;28;20049;-67
2021/03/31 12:01:35;;;;;;;16.67;9.38;;;22.50;40.90;;;;;;5031125;28;20021;-67
2021/03/31 12:04:01;;;;;;;13.50;8.60;;;22.60;41.10;;;;;;5006300;28;20073;-67
2021/03/31 12:06:26;;;;;;;18.77;10.32;;;22.60;40.80;;;;;;5016794;28;20030;-67
2021/03/31 12:08:53;;;;;;;15.07;9.48;;;22.60;40.30;;;;;;5011097;28;20038;-68
2021/03/31 12:11:18;;;;;;;15.30;9.50;;;22.60;40.20;;;;;;5030955;28;20025;-68
2021/03/31 12:13:44;;;;;;;19.13;9.90;;;22.60;39.90;;;;;;5027998;28;20112;-67
2021/03/31 12:16:09;;;;;;;18.25;9.38;;;22.60;40.10;;;;;;5030894;28;20083;-68
2021/03/31 12:18:35;;;;;;;17.95;10.00;;;22.70;40.30;;;;;;5024356;28;20022;-68
2021/03/31 12:21:01;;;;;;;20.48;10.40;;;22.80;40.60;;;;;;5030023;28;20056;-68
2021/03/31 12:23:27;;;;;;;17.15;10.27;;;22.80;40.10;;;;;;5030972;28;20120;-68
2021/03/31 12:25:53;;;;;;;15.82;9.27;;;22.80;40.10;;;;;;5023424;28;20061;-66
2021/03/31 12:28:22;;;;;;;14.43;8.68;;;22.80;40.50;;;;;;5010843;28;20482;-67
2021/03/31 12:30:48;;;;;;;16.58;9.00;;;22.80;40.20;;;;;;5026882;28;20378;-67
2021/03/31 12:33:13;;;;;;;14.43;8.25;;;22.80;39.40;;;;;;5028687;28;20033;-67
2021/03/31 12:35:39;;;;;;;17.35;8.80;;;22.90;39.70;;;;;;5011445;28;20116;-68
2021/03/31 12:38:04;;;;;;;14.65;8.23;;;22.80;39.70;;;;;;5010989;28;20025;-68
2021/03/31 12:40:30;;;;;;;14.40;8.48;;;22.90;39.60;;;;;;5010622;28;20386;-67
2021/03/31 12:42:55;;;;;;;16.63;7.95;;;22.90;39.40;;;;;;5033928;28;20072;-67
2021/03/31 12:45:21;;;;;;;14.82;7.13;;;22.90;39.20;;;;;;5013946;28;20417;-67
2021/03/31 12:47:48;;;;;;;16.17;7.93;;;23.00;39.10;;;;;;5034314;28;20520;-67
2021/03/31 12:50:16;;;;;;;11.85;7.75;;;23.00;39.00;;;;;;5013774;28;20051;-67